Denham, United Kingdom
Current Conditions -  °F | °C
As of 3:50 PM on Wednesday 22 Oct 2014 (Local Time) from EGWU Reporting Station
Light Rain Light Rain  
Wind Chill: 55°   Ceiling: 13000
Heat Index: 55°   Visibility: 6mi
Dew Point: 43°   Wind: 10mph
Humidity: 63%   Direction: 280°W
Pressure: 30.24"   Gusts: NA
Location:  51.57°N, 0.5°W
Report Text: EGWU 221450Z 28009KT 9999 -RA FEW030 SCT050 OVC130 13/06 Q1024 BLU NOSIG
Loading
Personal Weather Stations






























Interactive Weather Map
Tropical Storm Tracking
New forecast layout! Learn more

10-Day Weather Forecast

Advertisements
Track Severe Weather on mobile